sensor_id;sensor_type;location;lat;lon;timestamp;pressure;altitude;pressure_sealevel;temperature;humidity
62952;BME280;52163;52.212;-1.002;2023-01-31T00:02:20;101475.69;;;5.07;83.02
62952;BME280;52163;52.212;-1.002;2023-01-31T00:04:45;101477.60;;;5.08;83.18
62952;BME280;52163;52.212;-1.002;2023-01-31T00:07:11;101482.52;;;5.06;82.94
62952;BME280;52163;52.212;-1.002;2023-01-31T00:09:36;101479.23;;;5.05;82.77
62952;BME280;52163;52.212;-1.002;2023-01-31T00:12:01;101477.48;;;5.04;83.02
62952;BME280;52163;52.212;-1.002;2023-01-31T00:14:27;101466.59;;;5.06;83.00
62952;BME280;52163;52.212;-1.002;2023-01-31T00:16:52;101463.73;;;5.10;83.29
62952;BME280;52163;52.212;-1.002;2023-01-31T00:19:17;101460.99;;;5.14;83.24
62952;BME280;52163;52.212;-1.002;2023-01-31T00:21:43;101458.27;;;5.18;83.41
62952;BME280;52163;52.212;-1.002;2023-01-31T00:24:12;101461.82;;;5.24;83.36
62952;BME280;52163;52.212;-1.002;2023-01-31T00:26:38;101459.14;;;5.27;82.88
62952;BME280;52163;52.212;-1.002;2023-01-31T00:29:04;101462.77;;;5.28;82.70
62952;BME280;52163;52.212;-1.002;2023-01-31T00:31:33;101455.79;;;5.27;82.34
62952;BME280;52163;52.212;-1.002;2023-01-31T00:33:59;101453.86;;;5.27;82.27
62952;BME280;52163;52.212;-1.002;2023-01-31T00:36:27;101451.77;;;5.26;82.11
62952;BME280;52163;52.212;-1.002;2023-01-31T00:38:57;101447.42;;;5.26;82.26
62952;BME280;52163;52.212;-1.002;2023-01-31T00:41:25;101443.05;;;5.25;82.12
62952;BME280;52163;52.212;-1.002;2023-01-31T00:43:50;101450.04;;;5.26;82.25
62952;BME280;52163;52.212;-1.002;2023-01-31T00:46:17;101453.96;;;5.30;82.34
62952;BME280;52163;52.212;-1.002;2023-01-31T00:48:44;101449.66;;;5.35;82.25
62952;BME280;52163;52.212;-1.002;2023-01-31T00:51:10;101442.77;;;5.37;81.87
62952;BME280;52163;52.212;-1.002;2023-01-31T00:53:36;101447.63;;;5.39;81.74
62952;BME280;52163;52.212;-1.002;2023-01-31T00:56:05;101448.11;;;5.41;81.53
62952;BME280;52163;52.212;-1.002;2023-01-31T00:58:31;101441.63;;;5.41;81.37
62952;BME280;52163;52.212;-1.002;2023-01-31T01:01:05;101440.05;;;5.41;81.36
62952;BME280;52163;52.212;-1.002;2023-01-31T01:03:31;101435.48;;;5.42;81.43
62952;BME280;52163;52.212;-1.002;2023-01-31T01:05:56;101434.77;;;5.42;81.44
62952;BME280;52163;52.212;-1.002;2023-01-31T01:08:22;101439.69;;;5.42;81.11
62952;BME280;52163;52.212;-1.002;2023-01-31T01:10:47;101431.44;;;5.42;81.25
62952;BME280;52163;52.212;-1.002;2023-01-31T01:13:12;101425.29;;;5.43;81.30
62952;BME280;52163;52.212;-1.002;2023-01-31T01:15:38;101426.46;;;5.45;81.23
62952;BME280;52163;52.212;-1.002;2023-01-31T01:18:03;101416.02;;;5.49;81.38
62952;BME280;52163;52.212;-1.002;2023-01-31T01:20:29;101409.45;;;5.52;81.13
62952;BME280;52163;52.212;-1.002;2023-01-31T01:22:54;101402.92;;;5.55;81.06
62952;BME280;52163;52.212;-1.002;2023-01-31T01:25:19;101402.91;;;5.56;80.98
62952;BME280;52163;52.212;-1.002;2023-01-31T01:27:45;101393.26;;;5.56;80.92
62952;BME280;52163;52.212;-1.002;2023-01-31T01:30:10;101391.16;;;5.56;80.92
62952;BME280;52163;52.212;-1.002;2023-01-31T01:32:36;101392.24;;;5.53;80.94
62952;BME280;52163;52.212;-1.002;2023-01-31T01:35:02;101386.35;;;5.51;80.72
62952;BME280;52163;52.212;-1.002;2023-01-31T01:37:28;101381.64;;;5.50;80.78
62952;BME280;52163;52.212;-1.002;2023-01-31T01:39:54;101376.94;;;5.48;80.80
62952;BME280;52163;52.212;-1.002;2023-01-31T01:42:22;101377.11;;;5.48;80.99
62952;BME280;52163;52.212;-1.002;2023-01-31T01:44:58;101373.91;;;5.50;81.00
62952;BME280;52163;52.212;-1.002;2023-01-31T01:47:41;101365.27;;;5.52;81.12
62952;BME280;52163;52.212;-1.002;2023-01-31T01:50:18;101364.91;;;5.52;81.27
62952;BME280;52163;52.212;-1.002;2023-01-31T01:52:59;101362.12;;;5.52;81.12
62952;BME280;52163;52.212;-1.002;2023-01-31T01:55:39;101353.05;;;5.51;81.09
62952;BME280;52163;52.212;-1.002;2023-01-31T01:58:25;101356.59;;;5.50;81.28
62952;BME280;52163;52.212;-1.002;2023-01-31T02:00:54;101350.66;;;5.48;81.30
62952;BME280;52163;52.212;-1.002;2023-01-31T02:03:20;101345.02;;;5.50;81.43
62952;BME280;52163;52.212;-1.002;2023-01-31T02:05:59;101342.84;;;5.52;81.55
62952;BME280;52163;52.212;-1.002;2023-01-31T02:08:28;101337.71;;;5.55;81.57
62952;BME280;52163;52.212;-1.002;2023-01-31T02:13:33;101333.17;;;5.61;81.62
62952;BME280;52163;52.212;-1.002;2023-01-31T02:15:59;101333.11;;;5.63;81.54
62952;BME280;52163;52.212;-1.002;2023-01-31T02:18:25;101331.73;;;5.63;81.53
62952;BME280;52163;52.212;-1.002;2023-01-31T02:40:43;101323.74;;;5.60;81.86
62952;BME280;52163;52.212;-1.002;2023-01-31T02:43:20;101320.17;;;5.56;81.83
62952;BME280;52163;52.212;-1.002;2023-01-31T02:45:59;101316.56;;;5.52;81.86
62952;BME280;52163;52.212;-1.002;2023-01-31T02:48:28;101306.20;;;5.47;82.03
62952;BME280;52163;52.212;-1.002;2023-01-31T02:51:04;101310.45;;;5.45;82.22
62952;BME280;52163;52.212;-1.002;2023-01-31T02:53:39;101303.06;;;5.45;82.46
62952;BME280;52163;52.212;-1.002;2023-01-31T02:56:11;101302.52;;;5.46;82.55
62952;BME280;52163;52.212;-1.002;2023-01-31T02:58:49;101307.44;;;5.46;82.42
62952;BME280;52163;52.212;-1.002;2023-01-31T03:01:19;101309.55;;;5.46;82.77
62952;BME280;52163;52.212;-1.002;2023-01-31T03:03:49;101309.92;;;5.45;82.50
62952;BME280;52163;52.212;-1.002;2023-01-31T03:08:50;101309.10;;;5.36;82.32
62952;BME280;52163;52.212;-1.002;2023-01-31T03:11:17;101309.11;;;5.29;82.44
62952;BME280;52163;52.212;-1.002;2023-01-31T03:13:46;101311.40;;;5.22;82.80
62952;BME280;52163;52.212;-1.002;2023-01-31T03:16:28;101315.64;;;5.13;82.81
62952;BME280;52163;52.212;-1.002;2023-01-31T03:22:27;101319.30;;;4.99;83.38
62952;BME280;52163;52.212;-1.002;2023-01-31T03:24:55;101322.50;;;4.97;83.62
62952;BME280;52163;52.212;-1.002;2023-01-31T03:27:22;101323.05;;;4.96;83.79
62952;BME280;52163;52.212;-1.002;2023-01-31T03:29:49;101321.66;;;4.96;83.87
62952;BME280;52163;52.212;-1.002;2023-01-31T03:32:21;101314.63;;;4.97;84.01
62952;BME280;52163;52.212;-1.002;2023-01-31T03:34:49;101313.02;;;4.98;84.22
62952;BME280;52163;52.212;-1.002;2023-01-31T03:39:59;101311.83;;;4.97;84.45
62952;BME280;52163;52.212;-1.002;2023-01-31T03:45:19;101307.66;;;4.95;84.52
62952;BME280;52163;52.212;-1.002;2023-01-31T03:47:49;101305.92;;;4.95;84.64
62952;BME280;52163;52.212;-1.002;2023-01-31T03:53:31;101304.77;;;4.99;84.93
62952;BME280;52163;52.212;-1.002;2023-01-31T03:56:08;101296.11;;;5.02;84.86
62952;BME280;52163;52.212;-1.002;2023-01-31T03:58:40;101298.69;;;5.04;85.18
62952;BME280;52163;52.212;-1.002;2023-01-31T04:01:09;101295.16;;;5.05;85.26
62952;BME280;52163;52.212;-1.002;2023-01-31T04:06:10;101294.43;;;5.06;85.31
62952;BME280;52163;52.212;-1.002;2023-01-31T04:08:36;101291.15;;;5.04;85.27
62952;BME280;52163;52.212;-1.002;2023-01-31T04:11:07;101292.90;;;5.04;85.26
62952;BME280;52163;52.212;-1.002;2023-01-31T04:13:34;101291.98;;;5.06;85.28
62952;BME280;52163;52.212;-1.002;2023-01-31T04:15:59;101291.40;;;5.08;85.35
62952;BME280;52163;52.212;-1.002;2023-01-31T04:18:25;101290.48;;;5.11;85.39
62952;BME280;52163;52.212;-1.002;2023-01-31T04:20:50;101290.09;;;5.12;85.63
62952;BME280;52163;52.212;-1.002;2023-01-31T04:23:15;101278.67;;;5.14;85.72
62952;BME280;52163;52.212;-1.002;2023-01-31T04:25:43;101270.05;;;5.15;85.64
62952;BME280;52163;52.212;-1.002;2023-01-31T04:28:08;101270.39;;;5.16;85.66
62952;BME280;52163;52.212;-1.002;2023-01-31T04:30:34;101267.52;;;5.18;85.73
62952;BME280;52163;52.212;-1.002;2023-01-31T04:32:59;101267.49;;;5.19;85.85
62952;BME280;52163;52.212;-1.002;2023-01-31T04:35:24;101266.23;;;5.20;85.87
62952;BME280;52163;52.212;-1.002;2023-01-31T04:37:50;101257.91;;;5.23;85.99
62952;BME280;52163;52.212;-1.002;2023-01-31T04:40:15;101266.08;;;5.27;86.03
62952;BME280;52163;52.212;-1.002;2023-01-31T04:42:41;101262.83;;;5.31;85.97
62952;BME280;52163;52.212;-1.002;2023-01-31T04:45:07;101260.15;;;5.32;85.97
62952;BME280;52163;52.212;-1.002;2023-01-31T04:47:32;101255.89;;;5.34;86.03
62952;BME280;52163;52.212;-1.002;2023-01-31T04:49:58;101250.13;;;5.33;86.09
62952;BME280;52163;52.212;-1.002;2023-01-31T04:52:23;101258.91;;;5.33;86.08
62952;BME280;52163;52.212;-1.002;2023-01-31T04:54:49;101263.48;;;5.33;86.11
62952;BME280;52163;52.212;-1.002;2023-01-31T04:57:14;101257.50;;;5.33;86.42
62952;BME280;52163;52.212;-1.002;2023-01-31T04:59:40;101251.99;;;5.36;86.52
62952;BME280;52163;52.212;-1.002;2023-01-31T05:02:05;101243.45;;;5.40;86.52
62952;BME280;52163;52.212;-1.002;2023-01-31T05:04:31;101232.19;;;5.43;86.63
62952;BME280;52163;52.212;-1.002;2023-01-31T05:06:56;101227.74;;;5.45;86.62
62952;BME280;52163;52.212;-1.002;2023-01-31T05:09:21;101222.34;;;5.44;86.46
62952;BME280;52163;52.212;-1.002;2023-01-31T05:11:47;101226.17;;;5.45;86.71
62952;BME280;52163;52.212;-1.002;2023-01-31T05:14:13;101211.69;;;5.42;86.67
62952;BME280;52163;52.212;-1.002;2023-01-31T05:16:39;101206.47;;;5.41;86.81
62952;BME280;52163;52.212;-1.002;2023-01-31T05:19:05;101210.01;;;5.40;86.95
62952;BME280;52163;52.212;-1.002;2023-01-31T05:21:30;101208.41;;;5.41;87.05
62952;BME280;52163;52.212;-1.002;2023-01-31T05:24:16;101202.93;;;5.42;87.27
62952;BME280;52163;52.212;-1.002;2023-01-31T05:26:41;101193.79;;;5.43;87.19
62952;BME280;52163;52.212;-1.002;2023-01-31T05:29:06;101192.02;;;5.43;87.48
62952;BME280;52163;52.212;-1.002;2023-01-31T05:31:32;101192.74;;;5.43;87.58
62952;BME280;52163;52.212;-1.002;2023-01-31T05:33:57;101193.65;;;5.43;87.64
62952;BME280;52163;52.212;-1.002;2023-01-31T05:36:23;101193.70;;;5.41;87.81
62952;BME280;52163;52.212;-1.002;2023-01-31T05:38:49;101192.15;;;5.39;87.91
62952;BME280;52163;52.212;-1.002;2023-01-31T05:41:14;101197.23;;;5.39;88.03
62952;BME280;52163;52.212;-1.002;2023-01-31T05:43:40;101193.51;;;5.41;88.31
62952;BME280;52163;52.212;-1.002;2023-01-31T05:46:05;101199.76;;;5.43;88.39
62952;BME280;52163;52.212;-1.002;2023-01-31T05:48:31;101196.55;;;5.45;88.88
62952;BME280;52163;52.212;-1.002;2023-01-31T05:50:56;101196.29;;;5.48;88.96
62952;BME280;52163;52.212;-1.002;2023-01-31T05:53:21;101194.48;;;5.49;88.71
62952;BME280;52163;52.212;-1.002;2023-01-31T05:55:47;101195.90;;;5.49;88.93
62952;BME280;52163;52.212;-1.002;2023-01-31T05:58:14;101191.70;;;5.49;89.01
62952;BME280;52163;52.212;-1.002;2023-01-31T06:00:39;101191.33;;;5.49;89.11
62952;BME280;52163;52.212;-1.002;2023-01-31T06:03:05;101193.71;;;5.53;89.42
62952;BME280;52163;52.212;-1.002;2023-01-31T06:05:30;101190.98;;;5.56;89.57
62952;BME280;52163;52.212;-1.002;2023-01-31T06:07:56;101178.49;;;5.59;89.74
62952;BME280;52163;52.212;-1.002;2023-01-31T06:10:21;101179.86;;;5.59;89.82
62952;BME280;52163;52.212;-1.002;2023-01-31T06:12:47;101176.16;;;5.60;89.83
62952;BME280;52163;52.212;-1.002;2023-01-31T06:15:13;101179.52;;;5.59;89.99
62952;BME280;52163;52.212;-1.002;2023-01-31T06:17:38;101181.98;;;5.59;89.85
62952;BME280;52163;52.212;-1.002;2023-01-31T06:20:05;101170.61;;;5.58;90.11
62952;BME280;52163;52.212;-1.002;2023-01-31T06:22:30;101164.70;;;5.56;89.93
62952;BME280;52163;52.212;-1.002;2023-01-31T06:24:55;101169.11;;;5.55;90.36
62952;BME280;52163;52.212;-1.002;2023-01-31T06:27:21;101168.17;;;5.57;90.72
62952;BME280;52163;52.212;-1.002;2023-01-31T06:29:47;101165.13;;;5.59;90.80
62952;BME280;52163;52.212;-1.002;2023-01-31T06:32:12;101161.21;;;5.61;90.96
62952;BME280;52163;52.212;-1.002;2023-01-31T06:34:37;101168.55;;;5.63;91.03
62952;BME280;52163;52.212;-1.002;2023-01-31T06:37:03;101172.09;;;5.61;90.89
62952;BME280;52163;52.212;-1.002;2023-01-31T06:39:28;101173.15;;;5.61;90.96
62952;BME280;52163;52.212;-1.002;2023-01-31T06:41:54;101168.58;;;5.62;91.11
62952;BME280;52163;52.212;-1.002;2023-01-31T06:44:19;101166.95;;;5.63;91.33
62952;BME280;52163;52.212;-1.002;2023-01-31T06:46:44;101167.04;;;5.66;91.32
62952;BME280;52163;52.212;-1.002;2023-01-31T06:49:10;101172.27;;;5.66;91.59
62952;BME280;52163;52.212;-1.002;2023-01-31T06:51:35;101171.88;;;5.68;91.76
62952;BME280;52163;52.212;-1.002;2023-01-31T06:54:01;101168.83;;;5.71;92.03
62952;BME280;52163;52.212;-1.002;2023-01-31T06:56:27;101167.71;;;5.73;92.16
62952;BME280;52163;52.212;-1.002;2023-01-31T06:58:52;101166.95;;;5.75;92.12
62952;BME280;52163;52.212;-1.002;2023-01-31T07:01:17;101154.98;;;5.76;92.21
62952;BME280;52163;52.212;-1.002;2023-01-31T07:03:43;101150.36;;;5.79;92.34
62952;BME280;52163;52.212;-1.002;2023-01-31T07:06:09;101140.27;;;5.82;92.51
62952;BME280;52163;52.212;-1.002;2023-01-31T07:08:35;101150.21;;;5.84;92.63
62952;BME280;52163;52.212;-1.002;2023-01-31T07:11:02;101148.38;;;5.86;92.74
62952;BME280;52163;52.212;-1.002;2023-01-31T07:13:28;101149.40;;;5.87;92.82
62952;BME280;52163;52.212;-1.002;2023-01-31T07:15:54;101137.17;;;5.86;92.98
62952;BME280;52163;52.212;-1.002;2023-01-31T07:18:20;101126.92;;;5.83;92.93
62952;BME280;52163;52.212;-1.002;2023-01-31T07:20:45;101134.42;;;5.78;93.05
62952;BME280;52163;52.212;-1.002;2023-01-31T07:23:11;101144.50;;;5.75;93.37
62952;BME280;52163;52.212;-1.002;2023-01-31T07:25:36;101139.21;;;5.76;93.72
62952;BME280;52163;52.212;-1.002;2023-01-31T07:28:02;101137.23;;;5.77;94.13
62952;BME280;52163;52.212;-1.002;2023-01-31T07:30:28;101135.38;;;5.75;93.76
62952;BME280;52163;52.212;-1.002;2023-01-31T07:32:55;101127.77;;;5.72;93.82
62952;BME280;52163;52.212;-1.002;2023-01-31T07:35:21;101124.39;;;5.67;93.95
62952;BME280;52163;52.212;-1.002;2023-01-31T07:37:46;101125.76;;;5.63;94.01
62952;BME280;52163;52.212;-1.002;2023-01-31T07:40:14;101129.92;;;5.59;94.32
62952;BME280;52163;52.212;-1.002;2023-01-31T07:42:40;101136.39;;;5.59;94.52
62952;BME280;52163;52.212;-1.002;2023-01-31T07:45:07;101136.65;;;5.62;94.82
62952;BME280;52163;52.212;-1.002;2023-01-31T07:47:33;101133.89;;;5.66;95.31
62952;BME280;52163;52.212;-1.002;2023-01-31T07:49:58;101135.34;;;5.71;95.43
62952;BME280;52163;52.212;-1.002;2023-01-31T07:52:24;101140.27;;;5.76;95.85
62952;BME280;52163;52.212;-1.002;2023-01-31T07:54:49;101141.35;;;5.81;95.88
62952;BME280;52163;52.212;-1.002;2023-01-31T07:57:15;101144.02;;;5.86;95.81
62952;BME280;52163;52.212;-1.002;2023-01-31T07:59:43;101146.68;;;5.90;95.87
62952;BME280;52163;52.212;-1.002;2023-01-31T08:02:14;101140.54;;;5.96;95.99
62952;BME280;52163;52.212;-1.002;2023-01-31T08:04:59;101142.77;;;6.05;96.19
62952;BME280;52163;52.212;-1.002;2023-01-31T08:07:26;101139.66;;;6.14;96.41
62952;BME280;52163;52.212;-1.002;2023-01-31T08:09:51;101145.33;;;6.23;96.28
62952;BME280;52163;52.212;-1.002;2023-01-31T08:12:17;101148.41;;;6.32;96.32
62952;BME280;52163;52.212;-1.002;2023-01-31T08:14:43;101145.33;;;6.40;95.92
62952;BME280;52163;52.212;-1.002;2023-01-31T08:17:09;101145.65;;;6.46;95.44
62952;BME280;52163;52.212;-1.002;2023-01-31T08:19:34;101142.55;;;6.49;95.30
62952;BME280;52163;52.212;-1.002;2023-01-31T08:22:01;101142.25;;;6.53;95.11
62952;BME280;52163;52.212;-1.002;2023-01-31T08:24:27;101143.04;;;6.56;95.08
62952;BME280;52163;52.212;-1.002;2023-01-31T08:26:53;101131.66;;;6.61;95.20
62952;BME280;52163;52.212;-1.002;2023-01-31T08:29:18;101128.58;;;6.69;95.53
62952;BME280;52163;52.212;-1.002;2023-01-31T08:31:44;101130.10;;;6.76;95.24
62952;BME280;52163;52.212;-1.002;2023-01-31T08:34:10;101130.64;;;6.80;95.15
62952;BME280;52163;52.212;-1.002;2023-01-31T08:36:35;101128.40;;;6.84;94.62
62952;BME280;52163;52.212;-1.002;2023-01-31T08:39:02;101135.58;;;6.85;94.37
62952;BME280;52163;52.212;-1.002;2023-01-31T08:41:29;101135.35;;;6.86;94.47
62952;BME280;52163;52.212;-1.002;2023-01-31T08:43:55;101131.41;;;6.88;94.49
62952;BME280;52163;52.212;-1.002;2023-01-31T08:46:23;101134.52;;;6.90;94.49
62952;BME280;52163;52.212;-1.002;2023-01-31T08:48:49;101132.63;;;6.93;94.71
62952;BME280;52163;52.212;-1.002;2023-01-31T08:51:14;101134.81;;;6.96;94.73
62952;BME280;52163;52.212;-1.002;2023-01-31T08:53:41;101141.40;;;6.99;94.81
62952;BME280;52163;52.212;-1.002;2023-01-31T08:56:09;101140.06;;;7.03;95.01
62952;BME280;52163;52.212;-1.002;2023-01-31T08:58:37;101148.86;;;7.07;94.88
62952;BME280;52163;52.212;-1.002;2023-01-31T09:01:05;101151.27;;;7.09;94.64
62952;BME280;52163;52.212;-1.002;2023-01-31T09:03:30;101155.19;;;7.12;94.77
62952;BME280;52163;52.212;-1.002;2023-01-31T09:06:00;101159.12;;;7.15;94.67
62952;BME280;52163;52.212;-1.002;2023-01-31T09:08:26;101154.88;;;7.20;95.18
62952;BME280;52163;52.212;-1.002;2023-01-31T09:10:55;101156.83;;;7.30;95.81
62952;BME280;52163;52.212;-1.002;2023-01-31T09:13:21;101155.45;;;7.44;96.00
62952;BME280;52163;52.212;-1.002;2023-01-31T09:15:57;101155.52;;;7.56;96.10
62952;BME280;52163;52.212;-1.002;2023-01-31T09:18:22;101156.70;;;7.67;95.79
62952;BME280;52163;52.212;-1.002;2023-01-31T09:20:48;101155.73;;;7.74;95.81
62952;BME280;52163;52.212;-1.002;2023-01-31T09:23:13;101157.56;;;7.81;95.73
62952;BME280;52163;52.212;-1.002;2023-01-31T09:25:38;101151.69;;;7.88;95.89
62952;BME280;52163;52.212;-1.002;2023-01-31T09:28:04;101153.63;;;7.97;96.07
62952;BME280;52163;52.212;-1.002;2023-01-31T09:30:29;101155.04;;;8.06;95.84
62952;BME280;52163;52.212;-1.002;2023-01-31T09:32:55;101163.15;;;8.14;95.74
62952;BME280;52163;52.212;-1.002;2023-01-31T09:35:20;101165.63;;;8.23;95.97
62952;BME280;52163;52.212;-1.002;2023-01-31T09:37:45;101162.44;;;8.32;95.60
62952;BME280;52163;52.212;-1.002;2023-01-31T09:40:18;101155.33;;;8.37;95.16
62952;BME280;52163;52.212;-1.002;2023-01-31T09:42:47;101147.88;;;8.40;94.92
62952;BME280;52163;52.212;-1.002;2023-01-31T09:45:20;101140.50;;;8.39;94.88
62952;BME280;52163;52.212;-1.002;2023-01-31T09:47:53;101141.14;;;8.36;94.67
62952;BME280;52163;52.212;-1.002;2023-01-31T09:50:30;101137.78;;;8.33;94.67
62952;BME280;52163;52.212;-1.002;2023-01-31T09:52:58;101144.94;;;8.30;94.81
62952;BME280;52163;52.212;-1.002;2023-01-31T09:55:42;101144.12;;;8.28;94.23
62952;BME280;52163;52.212;-1.002;2023-01-31T09:58:17;101144.21;;;8.30;94.39
62952;BME280;52163;52.212;-1.002;2023-01-31T10:01:02;101141.67;;;8.32;93.91
62952;BME280;52163;52.212;-1.002;2023-01-31T10:07:15;101128.88;;;8.35;93.72
62952;BME280;52163;52.212;-1.002;2023-01-31T10:09:54;101117.15;;;8.33;93.88
62952;BME280;52163;52.212;-1.002;2023-01-31T10:12:39;101116.33;;;8.32;93.83
62952;BME280;52163;52.212;-1.002;2023-01-31T10:15:34;101122.70;;;8.31;93.60
62952;BME280;52163;52.212;-1.002;2023-01-31T10:20:47;101131.18;;;8.35;93.60
62952;BME280;52163;52.212;-1.002;2023-01-31T10:26:09;101134.83;;;8.45;93.27
62952;BME280;52163;52.212;-1.002;2023-01-31T10:33:50;101160.91;;;8.57;92.58
62952;BME280;52163;52.212;-1.002;2023-01-31T10:36:24;101168.80;;;8.63;92.40
62952;BME280;52163;52.212;-1.002;2023-01-31T10:38:53;101166.11;;;8.68;92.32
62952;BME280;52163;52.212;-1.002;2023-01-31T10:41:56;101169.34;;;8.75;92.13
62952;BME280;52163;52.212;-1.002;2023-01-31T10:44:31;101164.71;;;8.84;91.67
62952;BME280;52163;52.212;-1.002;2023-01-31T10:47:00;101161.51;;;8.94;91.45
62952;BME280;52163;52.212;-1.002;2023-01-31T10:49:27;101155.41;;;9.05;91.09
62952;BME280;52163;52.212;-1.002;2023-01-31T10:54:53;101155.39;;;9.33;90.00
62952;BME280;52163;52.212;-1.002;2023-01-31T10:57:20;101153.50;;;9.55;89.19
62952;BME280;52163;52.212;-1.002;2023-01-31T10:59:47;101152.95;;;9.76;88.72
62952;BME280;52163;52.212;-1.002;2023-01-31T11:02:20;101150.23;;;9.92;87.61
62952;BME280;52163;52.212;-1.002;2023-01-31T11:04:48;101153.55;;;10.04;86.08
62952;BME280;52163;52.212;-1.002;2023-01-31T11:07:14;101154.92;;;10.12;85.31
62952;BME280;52163;52.212;-1.002;2023-01-31T11:09:42;101153.63;;;10.21;84.49
62952;BME280;52163;52.212;-1.002;2023-01-31T11:12:11;101162.52;;;10.23;83.94
62952;BME280;52163;52.212;-1.002;2023-01-31T11:14:36;101158.52;;;10.22;83.84
62952;BME280;52163;52.212;-1.002;2023-01-31T11:17:21;101161.30;;;10.19;83.42
62952;BME280;52163;52.212;-1.002;2023-01-31T11:19:52;101157.04;;;10.20;83.34
62952;BME280;52163;52.212;-1.002;2023-01-31T11:22:38;101158.35;;;10.25;83.08
62952;BME280;52163;52.212;-1.002;2023-01-31T11:25:05;101165.20;;;10.29;82.83
62952;BME280;52163;52.212;-1.002;2023-01-31T11:27:42;101169.37;;;10.35;81.39
62952;BME280;52163;52.212;-1.002;2023-01-31T11:30:36;101161.16;;;10.33;78.02
62952;BME280;52163;52.212;-1.002;2023-01-31T11:33:05;101169.58;;;10.30;75.43
62952;BME280;52163;52.212;-1.002;2023-01-31T11:35:33;101171.90;;;10.26;74.11
62952;BME280;52163;52.212;-1.002;2023-01-31T11:38:19;101181.48;;;10.22;72.35
62952;BME280;52163;52.212;-1.002;2023-01-31T11:40:46;101175.92;;;10.09;70.51
62952;BME280;52163;52.212;-1.002;2023-01-31T11:45:45;101170.48;;;9.89;68.54
62952;BME280;52163;52.212;-1.002;2023-01-31T11:50:43;101172.99;;;9.69;67.90
62952;BME280;52163;52.212;-1.002;2023-01-31T11:55:44;101183.42;;;9.45;66.67
62952;BME280;52163;52.212;-1.002;2023-01-31T11:58:32;101180.77;;;9.33;66.31
62952;BME280;52163;52.212;-1.002;2023-01-31T12:03:28;101182.55;;;9.17;65.81
62952;BME280;52163;52.212;-1.002;2023-01-31T12:06:08;101176.58;;;9.17;66.00
62952;BME280;52163;52.212;-1.002;2023-01-31T12:08:40;101177.58;;;9.18;65.82
62952;BME280;52163;52.212;-1.002;2023-01-31T12:11:26;101176.36;;;9.21;65.18
62952;BME280;52163;52.212;-1.002;2023-01-31T12:14:00;101168.45;;;9.25;65.31
62952;BME280;52163;52.212;-1.002;2023-01-31T12:16:28;101170.75;;;9.28;65.03
62952;BME280;52163;52.212;-1.002;2023-01-31T12:26:58;101161.19;;;9.38;64.31
62952;BME280;52163;52.212;-1.002;2023-01-31T12:29:54;101161.64;;;9.39;63.80
62952;BME280;52163;52.212;-1.002;2023-01-31T12:35:39;101171.58;;;9.42;63.16
62952;BME280;52163;52.212;-1.002;2023-01-31T12:45:50;101166.55;;;9.51;62.70
62952;BME280;52163;52.212;-1.002;2023-01-31T12:54:38;101145.92;;;9.48;62.16
62952;BME280;52163;52.212;-1.002;2023-01-31T12:57:17;101148.89;;;9.48;61.83
62952;BME280;52163;52.212;-1.002;2023-01-31T13:00:07;101149.84;;;9.50;61.55
62952;BME280;52163;52.212;-1.002;2023-01-31T13:05:28;101155.46;;;9.58;61.50
62952;BME280;52163;52.212;-1.002;2023-01-31T13:10:36;101154.86;;;9.64;61.70
62952;BME280;52163;52.212;-1.002;2023-01-31T13:13:09;101144.00;;;9.63;61.57
62952;BME280;52163;52.212;-1.002;2023-01-31T13:15:55;101151.14;;;9.61;61.36
62952;BME280;52163;52.212;-1.002;2023-01-31T13:18:23;101155.61;;;9.59;61.01
62952;BME280;52163;52.212;-1.002;2023-01-31T13:20:54;101156.64;;;9.60;61.00
62952;BME280;52163;52.212;-1.002;2023-01-31T13:23:41;101153.31;;;9.59;60.95
62952;BME280;52163;52.212;-1.002;2023-01-31T13:28:50;101156.84;;;9.63;60.47
62952;BME280;52163;52.212;-1.002;2023-01-31T13:31:26;101158.38;;;9.65;60.18
62952;BME280;52163;52.212;-1.002;2023-01-31T13:34:00;101153.83;;;9.64;59.65
62952;BME280;52163;52.212;-1.002;2023-01-31T13:36:42;101163.06;;;9.62;59.91
62952;BME280;52163;52.212;-1.002;2023-01-31T13:39:29;101161.09;;;9.63;59.97
62952;BME280;52163;52.212;-1.002;2023-01-31T13:41:57;101168.65;;;9.64;59.55
62952;BME280;52163;52.212;-1.002;2023-01-31T13:44:23;101168.11;;;9.64;59.81
62952;BME280;52163;52.212;-1.002;2023-01-31T13:49:35;101169.39;;;9.63;60.12
62952;BME280;52163;52.212;-1.002;2023-01-31T13:52:11;101171.61;;;9.61;59.79
62952;BME280;52163;52.212;-1.002;2023-01-31T13:54:42;101175.75;;;9.59;59.80
62952;BME280;52163;52.212;-1.002;2023-01-31T13:57:26;101181.77;;;9.58;59.56
62952;BME280;52163;52.212;-1.002;2023-01-31T13:59:53;101189.02;;;9.57;59.53
62952;BME280;52163;52.212;-1.002;2023-01-31T14:02:20;101197.94;;;9.60;60.11
62952;BME280;52163;52.212;-1.002;2023-01-31T14:04:46;101201.91;;;9.62;59.96
62952;BME280;52163;52.212;-1.002;2023-01-31T14:07:14;101207.44;;;9.60;59.84
62952;BME280;52163;52.212;-1.002;2023-01-31T14:09:43;101210.92;;;9.57;58.59
62952;BME280;52163;52.212;-1.002;2023-01-31T14:17:08;101202.89;;;9.44;57.64
62952;BME280;52163;52.212;-1.002;2023-01-31T14:27:23;101208.73;;;9.26;56.76
62952;BME280;52163;52.212;-1.002;2023-01-31T14:40:30;101219.73;;;9.17;56.76
62952;BME280;52163;52.212;-1.002;2023-01-31T14:43:10;101217.88;;;9.15;57.09
62952;BME280;52163;52.212;-1.002;2023-01-31T14:54:10;101227.32;;;9.13;56.52
62952;BME280;52163;52.212;-1.002;2023-01-31T14:59:37;101225.48;;;9.10;56.34
62952;BME280;52163;52.212;-1.002;2023-01-31T15:04:57;101229.85;;;9.03;56.53
62952;BME280;52163;52.212;-1.002;2023-01-31T15:07:25;101223.88;;;8.98;56.15
62952;BME280;52163;52.212;-1.002;2023-01-31T15:09:51;101220.35;;;8.94;55.61
62952;BME280;52163;52.212;-1.002;2023-01-31T15:12:54;101213.45;;;8.90;55.73
62952;BME280;52163;52.212;-1.002;2023-01-31T15:15:39;101206.96;;;8.85;55.75
62952;BME280;52163;52.212;-1.002;2023-01-31T15:18:23;101205.55;;;8.81;55.97
62952;BME280;52163;52.212;-1.002;2023-01-31T15:20:59;101214.11;;;8.79;56.03
62952;BME280;52163;52.212;-1.002;2023-01-31T15:23:28;101217.96;;;8.75;56.64